»·PEaware :: DCM914 KSLC-KTUS

DCM914 :: KSLC-KTUS

FLIGHT INFORMATION

Flight Status: Arrived
Operator:
DotCom
More flights by this operator :: More flights under this callsign
Pilot: Ian G. (41107)
Aircraft: Cessna 525C Citation CJ4
(C25C)
More flights by this aircraft type
Origin: KSLC Salt Lake City Intl
United States
Destination: KTUS Tucson Intl
United States
More flights between these airports :: More routes between these airports
Route: ARCHZ1 MLF BCE J11 CORKR PXR DINGO5
File this flight plan on PilotEdge
Remarks: RMK / SIMBRIEF
Altitude:
(Current/Filed)
45,000ft
Speed:
(Current/Filed)
414kts
Departed: 17-Jul-23 02:05 PM
Arrived: 17-Jul-23 03:39 PM
Distance/Time
Traveled:
523nm/1:33
Distance/Time
To Go:
Arrived

Flight Plot

Page will automatically refresh every two minutes.

Flight plan parsing failed; only flown route is shown


Map Options




Map Legend


Flown Route
Filed Route
Departure Airport
Arrival Airport
Navaid (VOR, NDB)
Fix

Horizontal Profiles

Position Reports

Time Latitude Longitude Heading Altitude Ground
Speed
17-Jul-23 13:51 40.776117 -111.959467 359 4226ft 0kts
17-Jul-23 13:52 40.776117 -111.959467 359 4226ft 0kts
17-Jul-23 13:53 40.776117 -111.959467 359 4226ft 0kts
17-Jul-23 13:54 40.776117 -111.959467 359 4226ft 0kts
17-Jul-23 13:55 40.776117 -111.959467 359 4224ft 0kts
17-Jul-23 13:56 40.776117 -111.959467 359 4224ft 0kts
17-Jul-23 13:57 40.776117 -111.959467 359 4224ft 0kts
17-Jul-23 13:58 40.776117 -111.959467 359 4224ft 0kts
17-Jul-23 13:59 40.776117 -111.959467 359 4224ft 0kts
17-Jul-23 14:00 40.776117 -111.959467 359 4224ft 0kts
17-Jul-23 14:01 40.776336 -111.959570 288 4226ft 0kts
17-Jul-23 14:02 40.774572 -111.960621 180 4224ft 15kts
17-Jul-23 14:03 40.772729 -111.961140 271 4224ft 9kts
17-Jul-23 14:04 40.798203 -111.965268 316 5482ft 158kts
17-Jul-23 14:05 40.827536 -112.018312 305 7791ft 209kts
17-Jul-23 14:06 40.870396 -112.092010 305 10491ft 273kts
17-Jul-23 14:07 40.864030 -112.181057 224 13953ft 277kts
17-Jul-23 14:08 40.797752 -112.236537 216 17002ft 287kts
17-Jul-23 14:09 40.723402 -112.279660 194 19813ft 308kts
17-Jul-23 14:10 40.636788 -112.297082 193 22400ft 321kts
17-Jul-23 14:11 40.547467 -112.318489 201 24697ft 331kts
17-Jul-23 14:12 40.458482 -112.355049 201 26640ft 310kts
17-Jul-23 14:13 40.367808 -112.392136 201 27743ft 353kts
17-Jul-23 14:14 40.273525 -112.430538 201 30021ft 354kts
17-Jul-23 14:15 40.180417 -112.469911 209 32089ft 348kts
17-Jul-23 14:16 40.095653 -112.528740 214 34113ft 343kts
17-Jul-23 14:17 40.011853 -112.587662 215 35946ft 340kts
17-Jul-23 14:18 39.928830 -112.645823 216 37688ft 338kts
17-Jul-23 14:19 39.846347 -112.703475 216 39148ft 337kts
17-Jul-23 14:20 39.763425 -112.761264 215 40473ft 338kts
17-Jul-23 14:21 39.678742 -112.815284 204 41763ft 347kts
17-Jul-23 14:22 39.581454 -112.833900 193 43098ft 355kts
17-Jul-23 14:23 39.483460 -112.848512 192 44440ft 355kts
17-Jul-23 14:24 39.383148 -112.863493 192 44894ft 375kts
17-Jul-23 14:25 39.275717 -112.879425 191 44870ft 401kts
17-Jul-23 14:26 39.162407 -112.896179 191 44827ft 420kts
17-Jul-23 14:27 39.044093 -112.913607 191 44840ft 433kts
17-Jul-23 14:28 38.923035 -112.931380 190 44855ft 443kts
17-Jul-23 14:29 38.800810 -112.949271 190 44871ft 440kts
17-Jul-23 14:30 38.679416 -112.966972 190 44879ft 438kts
17-Jul-23 14:31 38.558695 -112.984526 190 44884ft 436kts
17-Jul-23 14:32 38.438190 -113.000188 184 44893ft 438kts
17-Jul-23 14:33 38.319479 -112.961750 154 44903ft 451kts
17-Jul-23 14:34 38.219725 -112.863172 142 44921ft 455kts
17-Jul-23 14:35 38.122417 -112.759765 142 44957ft 455kts
17-Jul-23 14:36 38.025333 -112.656978 142 44987ft 455kts
17-Jul-23 14:37 37.928316 -112.554633 142 45003ft 455kts
17-Jul-23 14:38 37.830729 -112.452043 142 45144ft 455kts
17-Jul-23 14:39 37.732284 -112.353095 151 45293ft 452kts
17-Jul-23 14:40 37.614342 -112.309297 182 45302ft 439kts
17-Jul-23 14:41 37.492931 -112.315866 186 45161ft 436kts
17-Jul-23 14:42 37.380636 -112.322791 186 44976ft 405kts
17-Jul-23 14:43 37.266749 -112.329686 186 45008ft 415kts
17-Jul-23 14:44 37.150526 -112.336691 186 45093ft 421kts
17-Jul-23 14:45 37.032579 -112.343818 186 45151ft 425kts
17-Jul-23 14:46 36.913643 -112.350972 186 45130ft 429kts
17-Jul-23 14:47 36.793998 -112.358160 186 45055ft 433kts
17-Jul-23 14:48 36.673248 -112.365393 186 44960ft 436kts
17-Jul-23 14:49 36.551940 -112.372635 186 44959ft 438kts
17-Jul-23 14:50 36.430039 -112.379890 185 44953ft 439kts
17-Jul-23 14:51 36.307833 -112.387146 185 44940ft 440kts
17-Jul-23 14:52 36.185429 -112.394393 185 45009ft 440kts
17-Jul-23 14:53 36.062728 -112.396871 175 45117ft 444kts
17-Jul-23 14:54 35.940331 -112.376362 175 45187ft 444kts
17-Jul-23 14:55 35.818106 -112.355941 175 45137ft 444kts
17-Jul-23 14:56 35.695794 -112.335594 175 44992ft 443kts
17-Jul-23 14:57 35.573588 -112.315346 175 45045ft 443kts
17-Jul-23 14:58 35.451282 -112.295132 175 45235ft 443kts
17-Jul-23 14:59 35.328887 -112.274965 175 45358ft 443kts
17-Jul-23 15:00 35.206369 -112.254844 174 45325ft 444kts
17-Jul-23 15:01 35.083853 -112.234786 174 45139ft 444kts
17-Jul-23 15:02 34.961692 -112.214841 174 44925ft 444kts
17-Jul-23 15:03 34.839330 -112.194919 174 45009ft 443kts
17-Jul-23 15:04 34.716734 -112.175025 174 45065ft 444kts
17-Jul-23 15:05 34.594402 -112.155237 174 45052ft 443kts
17-Jul-23 15:06 34.472207 -112.135526 174 44966ft 443kts
17-Jul-23 15:07 34.350477 -112.115949 174 44895ft 442kts
17-Jul-23 15:08 34.233737 -112.097226 174 42814ft 408kts
17-Jul-23 15:09 34.122250 -112.079398 172 40583ft 403kts
17-Jul-23 15:10 34.009749 -112.061461 172 38610ft 414kts
17-Jul-23 15:11 33.894444 -112.043113 172 36508ft 421kts
17-Jul-23 15:12 33.778393 -112.024694 173 34587ft 421kts
17-Jul-23 15:13 33.662615 -112.006379 173 32552ft 415kts
17-Jul-23 15:14 33.549685 -111.988560 172 30603ft 405kts
17-Jul-23 15:15 33.439445 -111.971199 172 28462ft 394kts
17-Jul-23 15:16 33.331665 -111.958727 174 26408ft 386kts
17-Jul-23 15:17 33.225732 -111.946835 173 24519ft 379kts
17-Jul-23 15:18 33.122779 -111.935232 173 23880ft 378kts
17-Jul-23 15:19 33.018870 -111.923615 173 22950ft 355kts
17-Jul-23 15:20 32.918471 -111.912386 173 21041ft 376kts
17-Jul-23 15:21 32.827528 -111.860528 143 19087ft 351kts
17-Jul-23 15:22 32.750823 -111.796922 144 17235ft 324kts
17-Jul-23 15:23 32.677998 -111.736730 145 15534ft 315kts
17-Jul-23 15:24 32.606336 -111.677675 145 13877ft 313kts
17-Jul-23 15:25 32.539302 -111.613432 125 12218ft 310kts
17-Jul-23 15:26 32.487665 -111.531668 127 10904ft 302kts
17-Jul-23 15:27 32.440458 -111.456977 128 9171ft 258kts
17-Jul-23 15:28 32.403696 -111.388899 115 7402ft 240kts
17-Jul-23 15:29 32.372512 -111.316745 117 6463ft 251kts
17-Jul-23 15:30 32.340302 -111.242908 117 5944ft 251kts
17-Jul-23 15:31 32.308834 -111.171021 117 5913ft 240kts
17-Jul-23 15:32 32.266254 -111.115896 136 5933ft 191kts
17-Jul-23 15:33 32.231285 -111.074662 136 5330ft 179kts
17-Jul-23 15:34 32.196576 -111.033737 137 4512ft 165kts
17-Jul-23 15:35 32.165014 -110.996762 136 3878ft 146kts
17-Jul-23 15:36 32.140932 -110.968394 143 3138ft 103kts
17-Jul-23 15:37 32.121665 -110.945841 135 2590ft 89kts
17-Jul-23 15:38 32.119309 -110.940735 318 2589ft 16kts

Navigation Log

Ident Type
Flight plan parsing failed, navigation log unavailable